sensor_id;sensor_type;location;lat;lon;timestamp;temperature;humidity
7844;DHT22;3967;48.702;9.326;2022-10-22T00:01:02;15.60;99.90
7844;DHT22;3967;48.702;9.326;2022-10-22T00:03:29;15.60;99.90
7844;DHT22;3967;48.702;9.326;2022-10-22T00:05:56;15.60;99.90
7844;DHT22;3967;48.702;9.326;2022-10-22T00:08:23;15.70;99.90
7844;DHT22;3967;48.702;9.326;2022-10-22T00:10:50;15.50;99.90
7844;DHT22;3967;48.702;9.326;2022-10-22T00:13:16;15.50;99.90
7844;DHT22;3967;48.702;9.326;2022-10-22T00:15:43;15.50;99.90
7844;DHT22;3967;48.702;9.326;2022-10-22T00:18:09;15.40;99.90
7844;DHT22;3967;48.702;9.326;2022-10-22T00:20:36;15.40;99.90
7844;DHT22;3967;48.702;9.326;2022-10-22T00:23:03;15.40;99.90
7844;DHT22;3967;48.702;9.326;2022-10-22T00:25:30;15.40;99.90
7844;DHT22;3967;48.702;9.326;2022-10-22T00:28:00;15.50;99.90
7844;DHT22;3967;48.702;9.326;2022-10-22T00:30:27;15.40;99.90
7844;DHT22;3967;48.702;9.326;2022-10-22T00:32:54;15.30;99.90
7844;DHT22;3967;48.702;9.326;2022-10-22T00:35:20;15.30;99.90
7844;DHT22;3967;48.702;9.326;2022-10-22T00:37:47;15.30;99.90
7844;DHT22;3967;48.702;9.326;2022-10-22T00:40:14;15.30;99.90
7844;DHT22;3967;48.702;9.326;2022-10-22T00:42:40;15.20;99.90
7844;DHT22;3967;48.702;9.326;2022-10-22T00:53:01;15.00;99.90
7844;DHT22;3967;48.702;9.326;2022-10-22T00:55:31;15.10;99.90
7844;DHT22;3967;48.702;9.326;2022-10-22T00:57:59;15.00;99.90
7844;DHT22;3967;48.702;9.326;2022-10-22T01:00:26;15.00;99.90
7844;DHT22;3967;48.702;9.326;2022-10-22T01:02:53;15.10;99.90
7844;DHT22;3967;48.702;9.326;2022-10-22T01:05:21;15.00;99.90
7844;DHT22;3967;48.702;9.326;2022-10-22T01:07:50;15.00;99.90
7844;DHT22;3967;48.702;9.326;2022-10-22T01:13:08;15.10;99.90
7844;DHT22;3967;48.702;9.326;2022-10-22T01:18:35;15.00;99.90
7844;DHT22;3967;48.702;9.326;2022-10-22T01:21:14;14.90;99.90
7844;DHT22;3967;48.702;9.326;2022-10-22T01:29:50;14.70;99.90
7844;DHT22;3967;48.702;9.326;2022-10-22T01:32:21;14.70;99.90
7844;DHT22;3967;48.702;9.326;2022-10-22T01:34:52;14.60;99.90
7844;DHT22;3967;48.702;9.326;2022-10-22T01:37:22;14.60;99.90
7844;DHT22;3967;48.702;9.326;2022-10-22T01:39:50;14.60;99.90
7844;DHT22;3967;48.702;9.326;2022-10-22T01:42:18;14.60;99.90
7844;DHT22;3967;48.702;9.326;2022-10-22T01:44:45;14.60;99.90
7844;DHT22;3967;48.702;9.326;2022-10-22T01:50:27;14.50;99.90
7844;DHT22;3967;48.702;9.326;2022-10-22T01:55:36;14.40;99.90
7844;DHT22;3967;48.702;9.326;2022-10-22T02:03:47;14.40;99.90
7844;DHT22;3967;48.702;9.326;2022-10-22T02:06:18;14.40;99.90
7844;DHT22;3967;48.702;9.326;2022-10-22T02:08:47;14.40;99.90
7844;DHT22;3967;48.702;9.326;2022-10-22T02:11:15;14.50;99.90
7844;DHT22;3967;48.702;9.326;2022-10-22T02:13:48;14.50;99.90
7844;DHT22;3967;48.702;9.326;2022-10-22T02:16:21;14.40;99.90
7844;DHT22;3967;48.702;9.326;2022-10-22T02:18:53;14.40;99.90
7844;DHT22;3967;48.702;9.326;2022-10-22T02:21:20;14.30;99.90
7844;DHT22;3967;48.702;9.326;2022-10-22T02:23:47;14.40;99.90
7844;DHT22;3967;48.702;9.326;2022-10-22T02:26:22;14.40;99.90
7844;DHT22;3967;48.702;9.326;2022-10-22T02:29:05;14.50;99.90
7844;DHT22;3967;48.702;9.326;2022-10-22T02:31:36;14.40;99.90
7844;DHT22;3967;48.702;9.326;2022-10-22T02:34:07;14.40;99.90
7844;DHT22;3967;48.702;9.326;2022-10-22T02:36:37;14.30;99.90
7844;DHT22;3967;48.702;9.326;2022-10-22T02:39:05;14.20;99.90
7844;DHT22;3967;48.702;9.326;2022-10-22T02:41:33;14.30;99.90
7844;DHT22;3967;48.702;9.326;2022-10-22T02:44:00;14.30;99.90
7844;DHT22;3967;48.702;9.326;2022-10-22T02:46:28;14.40;99.90
7844;DHT22;3967;48.702;9.326;2022-10-22T02:48:55;14.40;99.90
7844;DHT22;3967;48.702;9.326;2022-10-22T02:51:21;14.50;99.90
7844;DHT22;3967;48.702;9.326;2022-10-22T02:53:48;14.60;99.90
7844;DHT22;3967;48.702;9.326;2022-10-22T02:56:14;14.70;99.90
7844;DHT22;3967;48.702;9.326;2022-10-22T02:58:41;14.70;99.90
7844;DHT22;3967;48.702;9.326;2022-10-22T03:01:08;14.60;99.90
7844;DHT22;3967;48.702;9.326;2022-10-22T03:03:39;14.50;99.90
7844;DHT22;3967;48.702;9.326;2022-10-22T03:06:06;14.30;99.90
7844;DHT22;3967;48.702;9.326;2022-10-22T03:08:33;14.20;99.90
7844;DHT22;3967;48.702;9.326;2022-10-22T03:11:00;14.10;99.90
7844;DHT22;3967;48.702;9.326;2022-10-22T03:13:27;13.90;99.90
7844;DHT22;3967;48.702;9.326;2022-10-22T03:15:54;13.90;99.90
7844;DHT22;3967;48.702;9.326;2022-10-22T03:18:21;13.90;99.90
7844;DHT22;3967;48.702;9.326;2022-10-22T03:20:47;13.80;99.90
7844;DHT22;3967;48.702;9.326;2022-10-22T03:23:17;13.80;99.90
7844;DHT22;3967;48.702;9.326;2022-10-22T03:25:45;13.90;99.90
7844;DHT22;3967;48.702;9.326;2022-10-22T03:28:14;14.00;99.90
7844;DHT22;3967;48.702;9.326;2022-10-22T03:30:42;13.80;99.90
7844;DHT22;3967;48.702;9.326;2022-10-22T03:33:09;14.00;99.90
7844;DHT22;3967;48.702;9.326;2022-10-22T03:35:41;14.10;99.90
7844;DHT22;3967;48.702;9.326;2022-10-22T03:38:09;14.10;99.90
7844;DHT22;3967;48.702;9.326;2022-10-22T03:40:36;14.20;99.90
7844;DHT22;3967;48.702;9.326;2022-10-22T03:43:03;14.10;99.90
7844;DHT22;3967;48.702;9.326;2022-10-22T03:45:29;13.80;99.90
7844;DHT22;3967;48.702;9.326;2022-10-22T03:47:56;13.90;99.90
7844;DHT22;3967;48.702;9.326;2022-10-22T03:50:23;13.90;99.90
7844;DHT22;3967;48.702;9.326;2022-10-22T03:52:50;14.00;99.90
7844;DHT22;3967;48.702;9.326;2022-10-22T03:55:16;14.10;99.90
7844;DHT22;3967;48.702;9.326;2022-10-22T03:57:43;14.10;99.90
7844;DHT22;3967;48.702;9.326;2022-10-22T04:00:10;14.10;99.90
7844;DHT22;3967;48.702;9.326;2022-10-22T04:02:36;14.20;99.90
7844;DHT22;3967;48.702;9.326;2022-10-22T04:05:03;14.30;99.90
7844;DHT22;3967;48.702;9.326;2022-10-22T04:07:30;14.40;99.90
7844;DHT22;3967;48.702;9.326;2022-10-22T04:09:57;14.10;99.90
7844;DHT22;3967;48.702;9.326;2022-10-22T04:12:23;14.10;99.90
7844;DHT22;3967;48.702;9.326;2022-10-22T04:14:50;14.10;99.90
7844;DHT22;3967;48.702;9.326;2022-10-22T04:17:17;14.10;99.90
7844;DHT22;3967;48.702;9.326;2022-10-22T04:19:43;14.20;99.90
7844;DHT22;3967;48.702;9.326;2022-10-22T04:22:10;14.30;99.90
7844;DHT22;3967;48.702;9.326;2022-10-22T04:24:36;14.20;99.90
7844;DHT22;3967;48.702;9.326;2022-10-22T04:27:03;14.30;99.90
7844;DHT22;3967;48.702;9.326;2022-10-22T04:29:30;14.30;99.90
7844;DHT22;3967;48.702;9.326;2022-10-22T04:31:56;14.40;99.90
7844;DHT22;3967;48.702;9.326;2022-10-22T04:34:26;14.20;99.90
7844;DHT22;3967;48.702;9.326;2022-10-22T04:36:54;14.30;99.90
7844;DHT22;3967;48.702;9.326;2022-10-22T04:39:20;14.40;99.90
7844;DHT22;3967;48.702;9.326;2022-10-22T04:41:47;14.40;99.90
7844;DHT22;3967;48.702;9.326;2022-10-22T04:44:13;14.30;99.90
7844;DHT22;3967;48.702;9.326;2022-10-22T04:46:42;14.40;99.90
7844;DHT22;3967;48.702;9.326;2022-10-22T04:49:09;14.10;99.90
7844;DHT22;3967;48.702;9.326;2022-10-22T04:51:36;14.00;99.90
7844;DHT22;3967;48.702;9.326;2022-10-22T04:54:02;14.10;99.90
7844;DHT22;3967;48.702;9.326;2022-10-22T04:56:30;14.10;99.90
7844;DHT22;3967;48.702;9.326;2022-10-22T04:59:00;14.20;99.90
7844;DHT22;3967;48.702;9.326;2022-10-22T05:01:29;14.20;99.90
7844;DHT22;3967;48.702;9.326;2022-10-22T05:03:58;14.20;99.90
7844;DHT22;3967;48.702;9.326;2022-10-22T05:06:26;14.30;99.90
7844;DHT22;3967;48.702;9.326;2022-10-22T05:08:59;14.20;99.90
7844;DHT22;3967;48.702;9.326;2022-10-22T05:11:28;14.30;99.90
7844;DHT22;3967;48.702;9.326;2022-10-22T05:13:56;14.20;99.90
7844;DHT22;3967;48.702;9.326;2022-10-22T05:16:24;14.30;99.90
7844;DHT22;3967;48.702;9.326;2022-10-22T05:18:51;14.20;99.90
7844;DHT22;3967;48.702;9.326;2022-10-22T05:21:20;14.00;99.90
7844;DHT22;3967;48.702;9.326;2022-10-22T05:23:48;13.80;99.90
7844;DHT22;3967;48.702;9.326;2022-10-22T05:26:18;13.70;99.90
7844;DHT22;3967;48.702;9.326;2022-10-22T05:28:46;13.70;99.90
7844;DHT22;3967;48.702;9.326;2022-10-22T05:31:14;13.70;99.90
7844;DHT22;3967;48.702;9.326;2022-10-22T05:33:41;13.70;99.90
7844;DHT22;3967;48.702;9.326;2022-10-22T05:36:12;13.80;99.90
7844;DHT22;3967;48.702;9.326;2022-10-22T05:38:39;13.80;99.90
7844;DHT22;3967;48.702;9.326;2022-10-22T05:41:14;13.80;99.90
7844;DHT22;3967;48.702;9.326;2022-10-22T05:43:41;13.80;99.90
7844;DHT22;3967;48.702;9.326;2022-10-22T05:46:10;13.80;99.90
7844;DHT22;3967;48.702;9.326;2022-10-22T05:48:38;13.80;99.90
7844;DHT22;3967;48.702;9.326;2022-10-22T05:51:10;13.80;99.90
7844;DHT22;3967;48.702;9.326;2022-10-22T05:53:39;13.70;99.90
7844;DHT22;3967;48.702;9.326;2022-10-22T05:56:09;13.70;99.90
7844;DHT22;3967;48.702;9.326;2022-10-22T05:58:36;13.70;99.90
7844;DHT22;3967;48.702;9.326;2022-10-22T06:01:05;13.60;99.90
7844;DHT22;3967;48.702;9.326;2022-10-22T06:03:32;13.60;99.90
7844;DHT22;3967;48.702;9.326;2022-10-22T06:06:01;13.60;99.90
7844;DHT22;3967;48.702;9.326;2022-10-22T06:08:28;13.70;99.90
7844;DHT22;3967;48.702;9.326;2022-10-22T06:10:56;13.70;99.90
7844;DHT22;3967;48.702;9.326;2022-10-22T06:13:22;13.70;99.90
7844;DHT22;3967;48.702;9.326;2022-10-22T06:15:50;13.80;99.90
7844;DHT22;3967;48.702;9.326;2022-10-22T06:18:18;13.80;99.90
7844;DHT22;3967;48.702;9.326;2022-10-22T06:20:45;13.90;99.90
7844;DHT22;3967;48.702;9.326;2022-10-22T06:23:13;13.90;99.90
7844;DHT22;3967;48.702;9.326;2022-10-22T06:25:41;13.90;99.90
7844;DHT22;3967;48.702;9.326;2022-10-22T06:28:08;13.80;99.90
7844;DHT22;3967;48.702;9.326;2022-10-22T06:30:36;13.90;99.90
7844;DHT22;3967;48.702;9.326;2022-10-22T06:33:09;13.90;99.90
7844;DHT22;3967;48.702;9.326;2022-10-22T06:35:36;13.90;99.90
7844;DHT22;3967;48.702;9.326;2022-10-22T06:38:02;14.00;99.90
7844;DHT22;3967;48.702;9.326;2022-10-22T06:40:29;14.00;99.90
7844;DHT22;3967;48.702;9.326;2022-10-22T06:42:58;13.90;99.90
7844;DHT22;3967;48.702;9.326;2022-10-22T06:45:25;14.00;99.90
7844;DHT22;3967;48.702;9.326;2022-10-22T06:47:51;14.00;99.90
7844;DHT22;3967;48.702;9.326;2022-10-22T06:50:18;14.10;99.90
7844;DHT22;3967;48.702;9.326;2022-10-22T06:52:45;14.20;99.90
7844;DHT22;3967;48.702;9.326;2022-10-22T06:55:12;14.20;99.90
7844;DHT22;3967;48.702;9.326;2022-10-22T06:57:38;14.20;99.90
7844;DHT22;3967;48.702;9.326;2022-10-22T07:00:06;14.20;99.90
7844;DHT22;3967;48.702;9.326;2022-10-22T07:02:33;14.20;99.90
7844;DHT22;3967;48.702;9.326;2022-10-22T07:05:00;14.30;99.90
7844;DHT22;3967;48.702;9.326;2022-10-22T07:07:27;14.30;99.90
7844;DHT22;3967;48.702;9.326;2022-10-22T07:09:53;14.40;99.90
7844;DHT22;3967;48.702;9.326;2022-10-22T07:12:20;14.40;99.90
7844;DHT22;3967;48.702;9.326;2022-10-22T07:14:48;14.30;99.90
7844;DHT22;3967;48.702;9.326;2022-10-22T07:17:14;14.30;99.90
7844;DHT22;3967;48.702;9.326;2022-10-22T07:19:41;14.30;99.90
7844;DHT22;3967;48.702;9.326;2022-10-22T07:22:08;14.30;99.90
7844;DHT22;3967;48.702;9.326;2022-10-22T07:24:34;14.50;99.90
7844;DHT22;3967;48.702;9.326;2022-10-22T07:27:04;14.40;99.90
7844;DHT22;3967;48.702;9.326;2022-10-22T07:29:37;14.20;99.90
7844;DHT22;3967;48.702;9.326;2022-10-22T07:32:03;13.90;99.90
7844;DHT22;3967;48.702;9.326;2022-10-22T07:34:30;14.00;99.90
7844;DHT22;3967;48.702;9.326;2022-10-22T07:36:57;14.20;99.90
7844;DHT22;3967;48.702;9.326;2022-10-22T07:39:24;14.30;99.90
7844;DHT22;3967;48.702;9.326;2022-10-22T07:41:51;14.40;99.90
7844;DHT22;3967;48.702;9.326;2022-10-22T07:44:18;14.40;99.90
7844;DHT22;3967;48.702;9.326;2022-10-22T07:46:45;14.50;99.90
7844;DHT22;3967;48.702;9.326;2022-10-22T07:49:14;14.60;99.90
7844;DHT22;3967;48.702;9.326;2022-10-22T07:51:41;14.60;99.90
7844;DHT22;3967;48.702;9.326;2022-10-22T07:54:07;14.70;99.90
7844;DHT22;3967;48.702;9.326;2022-10-22T07:56:34;14.70;99.90
7844;DHT22;3967;48.702;9.326;2022-10-22T07:59:01;14.70;99.90
7844;DHT22;3967;48.702;9.326;2022-10-22T08:01:32;14.80;99.90
7844;DHT22;3967;48.702;9.326;2022-10-22T08:03:59;14.70;99.90
7844;DHT22;3967;48.702;9.326;2022-10-22T08:06:26;14.80;99.90
7844;DHT22;3967;48.702;9.326;2022-10-22T08:08:52;14.70;99.90
7844;DHT22;3967;48.702;9.326;2022-10-22T08:11:19;14.70;99.90
7844;DHT22;3967;48.702;9.326;2022-10-22T08:13:46;14.80;99.90
7844;DHT22;3967;48.702;9.326;2022-10-22T08:16:13;14.70;99.90
7844;DHT22;3967;48.702;9.326;2022-10-22T08:18:40;14.70;99.90
7844;DHT22;3967;48.702;9.326;2022-10-22T08:21:07;14.80;99.90
7844;DHT22;3967;48.702;9.326;2022-10-22T08:23:34;14.80;99.90
7844;DHT22;3967;48.702;9.326;2022-10-22T08:26:00;14.80;99.90
7844;DHT22;3967;48.702;9.326;2022-10-22T08:28:28;14.80;99.90
7844;DHT22;3967;48.702;9.326;2022-10-22T08:30:56;15.00;99.90
7844;DHT22;3967;48.702;9.326;2022-10-22T08:33:23;15.10;99.90
7844;DHT22;3967;48.702;9.326;2022-10-22T08:35:51;15.10;99.90
7844;DHT22;3967;48.702;9.326;2022-10-22T08:38:18;15.30;99.90
7844;DHT22;3967;48.702;9.326;2022-10-22T08:40:49;15.30;99.90
7844;DHT22;3967;48.702;9.326;2022-10-22T08:48:54;15.70;99.90
7844;DHT22;3967;48.702;9.326;2022-10-22T08:51:25;16.10;99.90
7844;DHT22;3967;48.702;9.326;2022-10-22T08:56:37;16.30;99.90
7844;DHT22;3967;48.702;9.326;2022-10-22T08:59:16;16.20;99.90
7844;DHT22;3967;48.702;9.326;2022-10-22T09:01:50;16.00;99.90
7844;DHT22;3967;48.702;9.326;2022-10-22T09:04:32;16.20;99.90
7844;DHT22;3967;48.702;9.326;2022-10-22T09:07:01;16.40;99.90
7844;DHT22;3967;48.702;9.326;2022-10-22T09:09:37;16.60;99.90
7844;DHT22;3967;48.702;9.326;2022-10-22T09:12:06;16.70;99.90
7844;DHT22;3967;48.702;9.326;2022-10-22T09:14:34;16.70;99.90
7844;DHT22;3967;48.702;9.326;2022-10-22T09:17:24;16.60;99.90
7844;DHT22;3967;48.702;9.326;2022-10-22T09:27:45;17.10;99.90
7844;DHT22;3967;48.702;9.326;2022-10-22T09:30:20;17.20;99.90
7844;DHT22;3967;48.702;9.326;2022-10-22T09:32:57;17.30;99.90
7844;DHT22;3967;48.702;9.326;2022-10-22T09:35:26;17.40;99.90
7844;DHT22;3967;48.702;9.326;2022-10-22T09:37:55;17.50;99.90
7844;DHT22;3967;48.702;9.326;2022-10-22T09:40:22;17.60;99.90
7844;DHT22;3967;48.702;9.326;2022-10-22T09:42:49;17.60;99.90
7844;DHT22;3967;48.702;9.326;2022-10-22T09:45:20;17.70;99.90
7844;DHT22;3967;48.702;9.326;2022-10-22T09:47:48;17.70;99.90
7844;DHT22;3967;48.702;9.326;2022-10-22T09:50:40;17.90;99.90
7844;DHT22;3967;48.702;9.326;2022-10-22T09:53:20;18.10;99.90
7844;DHT22;3967;48.702;9.326;2022-10-22T09:55:56;18.20;99.90
7844;DHT22;3967;48.702;9.326;2022-10-22T09:58:24;18.30;99.90
7844;DHT22;3967;48.702;9.326;2022-10-22T10:00:59;18.40;99.90
7844;DHT22;3967;48.702;9.326;2022-10-22T10:03:30;18.30;99.90
7844;DHT22;3967;48.702;9.326;2022-10-22T10:05:59;18.40;99.90
7844;DHT22;3967;48.702;9.326;2022-10-22T10:08:31;18.40;99.90
7844;DHT22;3967;48.702;9.326;2022-10-22T10:11:10;18.50;99.90
7844;DHT22;3967;48.702;9.326;2022-10-22T10:16:48;18.70;99.90
7844;DHT22;3967;48.702;9.326;2022-10-22T10:19:29;18.70;99.90
7844;DHT22;3967;48.702;9.326;2022-10-22T10:22:25;18.60;99.90
7844;DHT22;3967;48.702;9.326;2022-10-22T10:28:00;18.90;99.20
7844;DHT22;3967;48.702;9.326;2022-10-22T10:30:27;18.90;98.60
7844;DHT22;3967;48.702;9.326;2022-10-22T10:33:15;19.00;98.50
7844;DHT22;3967;48.702;9.326;2022-10-22T10:49:23;19.30;97.30
7844;DHT22;3967;48.702;9.326;2022-10-22T10:54:33;19.30;96.90
7844;DHT22;3967;48.702;9.326;2022-10-22T10:57:08;19.40;96.90
7844;DHT22;3967;48.702;9.326;2022-10-22T11:08:08;19.60;95.80
7844;DHT22;3967;48.702;9.326;2022-10-22T11:10:41;19.70;95.70
7844;DHT22;3967;48.702;9.326;2022-10-22T11:15:57;19.80;95.40
7844;DHT22;3967;48.702;9.326;2022-10-22T11:18:35;19.80;94.40
7844;DHT22;3967;48.702;9.326;2022-10-22T11:23:44;19.90;94.30
7844;DHT22;3967;48.702;9.326;2022-10-22T11:26:20;20.00;94.50
7844;DHT22;3967;48.702;9.326;2022-10-22T11:28:51;20.10;94.00
7844;DHT22;3967;48.702;9.326;2022-10-22T11:31:22;20.00;92.40
7844;DHT22;3967;48.702;9.326;2022-10-22T11:36:59;20.10;92.50
7844;DHT22;3967;48.702;9.326;2022-10-22T11:39:35;20.10;92.20
7844;DHT22;3967;48.702;9.326;2022-10-22T11:42:05;20.20;92.30
7844;DHT22;3967;48.702;9.326;2022-10-22T11:45:03;20.20;91.50
7844;DHT22;3967;48.702;9.326;2022-10-22T11:55:52;20.50;91.00
7844;DHT22;3967;48.702;9.326;2022-10-22T12:00:54;20.60;89.70
7844;DHT22;3967;48.702;9.326;2022-10-22T12:19:26;20.80;89.80
7844;DHT22;3967;48.702;9.326;2022-10-22T12:22:28;20.70;88.50
7844;DHT22;3967;48.702;9.326;2022-10-22T12:24:49;20.80;88.00
7844;DHT22;3967;48.702;9.326;2022-10-22T12:29:53;20.90;83.90
7844;DHT22;3967;48.702;9.326;2022-10-22T12:32:20;20.90;82.60
7844;DHT22;3967;48.702;9.326;2022-10-22T12:34:49;20.80;82.20
7844;DHT22;3967;48.702;9.326;2022-10-22T12:37:17;20.80;84.40
7844;DHT22;3967;48.702;9.326;2022-10-22T12:39:45;21.00;86.10
7844;DHT22;3967;48.702;9.326;2022-10-22T12:42:13;20.70;84.90
7844;DHT22;3967;48.702;9.326;2022-10-22T12:44:41;20.70;86.70
7844;DHT22;3967;48.702;9.326;2022-10-22T12:47:16;20.70;84.20
7844;DHT22;3967;48.702;9.326;2022-10-22T12:49:46;20.80;83.60
7844;DHT22;3967;48.702;9.326;2022-10-22T12:52:19;20.70;83.00
7844;DHT22;3967;48.702;9.326;2022-10-22T12:54:49;20.90;81.50
7844;DHT22;3967;48.702;9.326;2022-10-22T12:57:19;21.00;80.70
7844;DHT22;3967;48.702;9.326;2022-10-22T12:59:48;21.00;80.80
7844;DHT22;3967;48.702;9.326;2022-10-22T13:02:22;21.00;82.10
7844;DHT22;3967;48.702;9.326;2022-10-22T13:07:49;20.80;81.70
7844;DHT22;3967;48.702;9.326;2022-10-22T13:10:23;20.70;80.80
7844;DHT22;3967;48.702;9.326;2022-10-22T13:12:54;20.60;81.30
7844;DHT22;3967;48.702;9.326;2022-10-22T13:18:23;20.50;79.40
7844;DHT22;3967;48.702;9.326;2022-10-22T13:23:20;21.00;81.00
7844;DHT22;3967;48.702;9.326;2022-10-22T13:25:58;21.00;78.40
7844;DHT22;3967;48.702;9.326;2022-10-22T13:28:25;21.20;80.10
7844;DHT22;3967;48.702;9.326;2022-10-22T13:35:57;21.10;78.30
7844;DHT22;3967;48.702;9.326;2022-10-22T13:38:25;21.10;79.30
7844;DHT22;3967;48.702;9.326;2022-10-22T13:40:53;21.10;78.70
7844;DHT22;3967;48.702;9.326;2022-10-22T13:43:20;20.90;76.40
7844;DHT22;3967;48.702;9.326;2022-10-22T13:45:58;20.70;76.30
7844;DHT22;3967;48.702;9.326;2022-10-22T13:48:27;20.80;78.30
7844;DHT22;3967;48.702;9.326;2022-10-22T13:50:54;20.90;77.40
7844;DHT22;3967;48.702;9.326;2022-10-22T13:53:23;20.80;77.10
7844;DHT22;3967;48.702;9.326;2022-10-22T13:55:50;20.90;78.90
7844;DHT22;3967;48.702;9.326;2022-10-22T13:58:22;20.90;77.20
7844;DHT22;3967;48.702;9.326;2022-10-22T14:00:54;20.80;77.20
7844;DHT22;3967;48.702;9.326;2022-10-22T14:03:27;20.80;77.20
7844;DHT22;3967;48.702;9.326;2022-10-22T14:05:54;20.90;77.20
7844;DHT22;3967;48.702;9.326;2022-10-22T14:08:22;20.80;76.00
7844;DHT22;3967;48.702;9.326;2022-10-22T14:10:50;20.80;75.90
7844;DHT22;3967;48.702;9.326;2022-10-22T14:13:18;20.80;76.40
7844;DHT22;3967;48.702;9.326;2022-10-22T14:15:47;20.70;76.30
7844;DHT22;3967;48.702;9.326;2022-10-22T14:18:23;20.70;75.10
7844;DHT22;3967;48.702;9.326;2022-10-22T14:20:58;20.90;75.20
7844;DHT22;3967;48.702;9.326;2022-10-22T14:23:27;20.90;74.60
7844;DHT22;3967;48.702;9.326;2022-10-22T14:25:55;20.80;77.70
7844;DHT22;3967;48.702;9.326;2022-10-22T14:28:22;20.80;78.60
7844;DHT22;3967;48.702;9.326;2022-10-22T14:30:49;20.80;77.90
7844;DHT22;3967;48.702;9.326;2022-10-22T14:33:30;20.80;77.20
7844;DHT22;3967;48.702;9.326;2022-10-22T14:36:00;20.90;77.60
7844;DHT22;3967;48.702;9.326;2022-10-22T14:38:28;20.80;77.00
7844;DHT22;3967;48.702;9.326;2022-10-22T14:40:55;20.70;77.20
7844;DHT22;3967;48.702;9.326;2022-10-22T14:43:25;20.70;76.60
7844;DHT22;3967;48.702;9.326;2022-10-22T14:45:52;20.60;77.80
7844;DHT22;3967;48.702;9.326;2022-10-22T14:48:19;20.60;78.00
7844;DHT22;3967;48.702;9.326;2022-10-22T14:50:46;20.60;78.30
7844;DHT22;3967;48.702;9.326;2022-10-22T14:53:13;20.60;79.00
7844;DHT22;3967;48.702;9.326;2022-10-22T14:55:45;20.50;78.70
7844;DHT22;3967;48.702;9.326;2022-10-22T14:58:13;20.50;79.00
7844;DHT22;3967;48.702;9.326;2022-10-22T15:00:41;20.60;78.40
7844;DHT22;3967;48.702;9.326;2022-10-22T15:03:08;20.50;79.50
7844;DHT22;3967;48.702;9.326;2022-10-22T15:05:39;20.40;78.50
7844;DHT22;3967;48.702;9.326;2022-10-22T15:08:12;20.30;78.70
7844;DHT22;3967;48.702;9.326;2022-10-22T15:10:40;20.40;79.10
7844;DHT22;3967;48.702;9.326;2022-10-22T15:13:07;20.50;78.10
7844;DHT22;3967;48.702;9.326;2022-10-22T15:15:34;20.50;78.30
7844;DHT22;3967;48.702;9.326;2022-10-22T15:18:05;20.50;77.90
7844;DHT22;3967;48.702;9.326;2022-10-22T15:20:32;20.60;78.40
7844;DHT22;3967;48.702;9.326;2022-10-22T15:22:58;20.50;79.10
7844;DHT22;3967;48.702;9.326;2022-10-22T15:25:25;20.60;79.30
7844;DHT22;3967;48.702;9.326;2022-10-22T15:27:52;20.60;79.70
7844;DHT22;3967;48.702;9.326;2022-10-22T15:30:27;20.50;80.70
7844;DHT22;3967;48.702;9.326;2022-10-22T15:32:54;20.50;81.10
7844;DHT22;3967;48.702;9.326;2022-10-22T15:35:20;20.50;81.10
7844;DHT22;3967;48.702;9.326;2022-10-22T15:37:50;20.50;82.00
7844;DHT22;3967;48.702;9.326;2022-10-22T15:40:16;20.40;82.40
7844;DHT22;3967;48.702;9.326;2022-10-22T15:42:43;20.30;82.00
7844;DHT22;3967;48.702;9.326;2022-10-22T15:45:11;20.30;82.20
7844;DHT22;3967;48.702;9.326;2022-10-22T15:47:38;20.30;83.20
7844;DHT22;3967;48.702;9.326;2022-10-22T15:50:06;20.20;82.70
7844;DHT22;3967;48.702;9.326;2022-10-22T15:52:33;20.10;82.90
7844;DHT22;3967;48.702;9.326;2022-10-22T15:54:59;20.00;83.10
7844;DHT22;3967;48.702;9.326;2022-10-22T15:57:29;20.00;83.90
7844;DHT22;3967;48.702;9.326;2022-10-22T15:59:56;19.90;83.90
7844;DHT22;3967;48.702;9.326;2022-10-22T16:02:23;19.90;84.00
7844;DHT22;3967;48.702;9.326;2022-10-22T16:04:50;19.80;84.40
7844;DHT22;3967;48.702;9.326;2022-10-22T16:07:16;19.80;84.70
7844;DHT22;3967;48.702;9.326;2022-10-22T16:09:48;19.70;85.30
7844;DHT22;3967;48.702;9.326;2022-10-22T16:12:14;19.60;86.60
7844;DHT22;3967;48.702;9.326;2022-10-22T16:14:42;19.50;87.10
7844;DHT22;3967;48.702;9.326;2022-10-22T16:17:09;19.40;88.10
7844;DHT22;3967;48.702;9.326;2022-10-22T16:19:36;19.30;88.80
7844;DHT22;3967;48.702;9.326;2022-10-22T16:22:03;19.20;89.00
7844;DHT22;3967;48.702;9.326;2022-10-22T16:24:30;19.20;89.10
7844;DHT22;3967;48.702;9.326;2022-10-22T16:26:56;19.10;89.30
7844;DHT22;3967;48.702;9.326;2022-10-22T16:29:23;19.00;89.50
7844;DHT22;3967;48.702;9.326;2022-10-22T16:31:50;18.90;89.60
7844;DHT22;3967;48.702;9.326;2022-10-22T16:34:16;18.90;90.00
7844;DHT22;3967;48.702;9.326;2022-10-22T16:36:43;18.80;90.40
7844;DHT22;3967;48.702;9.326;2022-10-22T16:39:10;18.70;90.80
7844;DHT22;3967;48.702;9.326;2022-10-22T16:41:36;18.70;91.00
7844;DHT22;3967;48.702;9.326;2022-10-22T16:44:05;18.60;91.10
7844;DHT22;3967;48.702;9.326;2022-10-22T16:46:34;18.50;91.50
7844;DHT22;3967;48.702;9.326;2022-10-22T16:49:04;18.40;91.70
7844;DHT22;3967;48.702;9.326;2022-10-22T16:51:32;18.40;91.90
7844;DHT22;3967;48.702;9.326;2022-10-22T16:53:59;18.30;91.90
7844;DHT22;3967;48.702;9.326;2022-10-22T16:56:26;18.30;92.00
7844;DHT22;3967;48.702;9.326;2022-10-22T16:58:55;18.10;92.00
7844;DHT22;3967;48.702;9.326;2022-10-22T17:01:24;18.10;92.00
7844;DHT22;3967;48.702;9.326;2022-10-22T17:03:57;17.90;92.50
7844;DHT22;3967;48.702;9.326;2022-10-22T17:06:24;17.90;92.80
7844;DHT22;3967;48.702;9.326;2022-10-22T17:08:51;17.80;92.90
7844;DHT22;3967;48.702;9.326;2022-10-22T17:11:21;17.80;93.30
7844;DHT22;3967;48.702;9.326;2022-10-22T17:13:49;17.70;92.90
7844;DHT22;3967;48.702;9.326;2022-10-22T17:16:21;17.60;92.80
7844;DHT22;3967;48.702;9.326;2022-10-22T17:18:48;17.60;92.80
7844;DHT22;3967;48.702;9.326;2022-10-22T17:21:15;17.40;92.60
7844;DHT22;3967;48.702;9.326;2022-10-22T17:23:42;17.50;92.90
7844;DHT22;3967;48.702;9.326;2022-10-22T17:26:17;17.50;93.00
7844;DHT22;3967;48.702;9.326;2022-10-22T17:28:46;17.40;93.40
7844;DHT22;3967;48.702;9.326;2022-10-22T17:31:22;17.30;93.60
7844;DHT22;3967;48.702;9.326;2022-10-22T17:33:52;17.20;94.10
7844;DHT22;3967;48.702;9.326;2022-10-22T17:36:20;17.10;94.60
7844;DHT22;3967;48.702;9.326;2022-10-22T17:38:52;17.00;95.20
7844;DHT22;3967;48.702;9.326;2022-10-22T17:41:22;17.00;95.30
7844;DHT22;3967;48.702;9.326;2022-10-22T17:43:49;17.10;95.60
7844;DHT22;3967;48.702;9.326;2022-10-22T17:46:24;17.00;95.60
7844;DHT22;3967;48.702;9.326;2022-10-22T17:48:56;16.90;95.60
7844;DHT22;3967;48.702;9.326;2022-10-22T17:51:25;16.80;96.10
7844;DHT22;3967;48.702;9.326;2022-10-22T17:53:52;16.80;96.10
7844;DHT22;3967;48.702;9.326;2022-10-22T17:56:24;16.80;96.30
7844;DHT22;3967;48.702;9.326;2022-10-22T17:58:51;16.80;96.50
7844;DHT22;3967;48.702;9.326;2022-10-22T18:01:19;16.70;96.20
7844;DHT22;3967;48.702;9.326;2022-10-22T18:03:47;16.70;96.30
7844;DHT22;3967;48.702;9.326;2022-10-22T18:06:14;16.70;96.40
7844;DHT22;3967;48.702;9.326;2022-10-22T18:08:41;16.60;96.70
7844;DHT22;3967;48.702;9.326;2022-10-22T18:11:10;16.50;96.80
7844;DHT22;3967;48.702;9.326;2022-10-22T18:13:37;16.50;96.90
7844;DHT22;3967;48.702;9.326;2022-10-22T18:16:04;16.40;96.80
7844;DHT22;3967;48.702;9.326;2022-10-22T18:18:33;16.40;96.70
7844;DHT22;3967;48.702;9.326;2022-10-22T18:21:00;16.30;96.80
7844;DHT22;3967;48.702;9.326;2022-10-22T18:23:27;16.20;97.10